sensor_id;sensor_type;location;lat;lon;timestamp;temperature;humidity
30148;DHT22;16960;49.404;8.248;2022-12-18T00:01:58;20.30;31.50
30148;DHT22;16960;49.404;8.248;2022-12-18T00:04:26;20.20;31.40
30148;DHT22;16960;49.404;8.248;2022-12-18T00:06:53;20.20;31.40
30148;DHT22;16960;49.404;8.248;2022-12-18T00:09:20;20.30;31.50
30148;DHT22;16960;49.404;8.248;2022-12-18T00:11:47;20.30;31.60
30148;DHT22;16960;49.404;8.248;2022-12-18T00:14:14;20.20;31.50
30148;DHT22;16960;49.404;8.248;2022-12-18T00:16:45;20.20;31.50
30148;DHT22;16960;49.404;8.248;2022-12-18T00:19:12;20.30;31.70
30148;DHT22;16960;49.404;8.248;2022-12-18T00:21:39;20.20;31.60
30148;DHT22;16960;49.404;8.248;2022-12-18T00:24:06;20.20;31.70
30148;DHT22;16960;49.404;8.248;2022-12-18T00:26:34;20.20;31.70
30148;DHT22;16960;49.404;8.248;2022-12-18T00:29:03;20.20;31.70
30148;DHT22;16960;49.404;8.248;2022-12-18T00:31:31;20.20;31.70
30148;DHT22;16960;49.404;8.248;2022-12-18T00:34:00;20.20;31.70
30148;DHT22;16960;49.404;8.248;2022-12-18T00:36:29;20.20;32.30
30148;DHT22;16960;49.404;8.248;2022-12-18T00:38:59;20.20;31.80
30148;DHT22;16960;49.404;8.248;2022-12-18T00:41:26;20.20;31.80
30148;DHT22;16960;49.404;8.248;2022-12-18T00:44:12;20.20;31.80
30148;DHT22;16960;49.404;8.248;2022-12-18T00:46:40;20.20;31.90
30148;DHT22;16960;49.404;8.248;2022-12-18T00:49:09;20.20;31.90
30148;DHT22;16960;49.404;8.248;2022-12-18T00:51:36;20.20;31.90
30148;DHT22;16960;49.404;8.248;2022-12-18T00:54:03;20.20;31.90
30148;DHT22;16960;49.404;8.248;2022-12-18T00:56:30;20.10;32.00
30148;DHT22;16960;49.404;8.248;2022-12-18T00:58:57;20.10;32.00
30148;DHT22;16960;49.404;8.248;2022-12-18T01:01:24;20.20;32.00
30148;DHT22;16960;49.404;8.248;2022-12-18T01:03:51;20.10;32.00
30148;DHT22;16960;49.404;8.248;2022-12-18T01:06:19;20.10;32.10
30148;DHT22;16960;49.404;8.248;2022-12-18T01:08:46;20.10;32.10
30148;DHT22;16960;49.404;8.248;2022-12-18T01:11:15;20.10;32.10
30148;DHT22;16960;49.404;8.248;2022-12-18T01:13:42;20.10;32.20
30148;DHT22;16960;49.404;8.248;2022-12-18T01:16:11;20.10;32.20
30148;DHT22;16960;49.404;8.248;2022-12-18T01:18:38;20.10;32.20
30148;DHT22;16960;49.404;8.248;2022-12-18T01:21:07;20.10;32.30
30148;DHT22;16960;49.404;8.248;2022-12-18T01:23:35;20.10;32.20
30148;DHT22;16960;49.404;8.248;2022-12-18T01:26:06;20.10;32.20
30148;DHT22;16960;49.404;8.248;2022-12-18T01:28:33;20.00;32.10
30148;DHT22;16960;49.404;8.248;2022-12-18T01:31:13;20.10;32.20
30148;DHT22;16960;49.404;8.248;2022-12-18T01:33:41;20.10;32.20
30148;DHT22;16960;49.404;8.248;2022-12-18T01:36:08;20.10;32.20
30148;DHT22;16960;49.404;8.248;2022-12-18T01:38:41;20.00;32.10
30148;DHT22;16960;49.404;8.248;2022-12-18T01:41:09;20.00;32.10
30148;DHT22;16960;49.404;8.248;2022-12-18T01:43:48;20.00;32.20
30148;DHT22;16960;49.404;8.248;2022-12-18T01:46:16;20.00;32.20
30148;DHT22;16960;49.404;8.248;2022-12-18T01:48:44;20.10;32.20
30148;DHT22;16960;49.404;8.248;2022-12-18T01:51:12;20.00;32.10
30148;DHT22;16960;49.404;8.248;2022-12-18T01:53:42;20.00;32.10
30148;DHT22;16960;49.404;8.248;2022-12-18T01:56:12;20.00;32.10
30148;DHT22;16960;49.404;8.248;2022-12-18T01:58:46;20.00;32.10
30148;DHT22;16960;49.404;8.248;2022-12-18T02:01:14;20.00;32.10
30148;DHT22;16960;49.404;8.248;2022-12-18T02:03:42;20.00;32.30
30148;DHT22;16960;49.404;8.248;2022-12-18T02:06:13;20.00;32.10
30148;DHT22;16960;49.404;8.248;2022-12-18T02:08:48;20.00;32.80
30148;DHT22;16960;49.404;8.248;2022-12-18T02:11:19;20.00;32.20
30148;DHT22;16960;49.404;8.248;2022-12-18T02:14:01;20.00;32.20
30148;DHT22;16960;49.404;8.248;2022-12-18T02:16:35;20.00;32.30
30148;DHT22;16960;49.404;8.248;2022-12-18T02:19:08;20.00;32.30
30148;DHT22;16960;49.404;8.248;2022-12-18T02:21:46;20.00;32.20
30148;DHT22;16960;49.404;8.248;2022-12-18T02:24:28;20.00;32.30
30148;DHT22;16960;49.404;8.248;2022-12-18T02:26:59;20.00;32.30
30148;DHT22;16960;49.404;8.248;2022-12-18T02:29:31;20.00;32.30
30148;DHT22;16960;49.404;8.248;2022-12-18T02:31:59;20.00;32.30
30148;DHT22;16960;49.404;8.248;2022-12-18T02:34:31;19.90;32.30
30148;DHT22;16960;49.404;8.248;2022-12-18T02:37:02;20.00;32.30
30148;DHT22;16960;49.404;8.248;2022-12-18T02:39:33;20.00;32.20
30148;DHT22;16960;49.404;8.248;2022-12-18T02:42:02;20.00;32.20
30148;DHT22;16960;49.404;8.248;2022-12-18T02:44:33;19.90;32.20
30148;DHT22;16960;49.404;8.248;2022-12-18T02:47:01;19.90;32.20
30148;DHT22;16960;49.404;8.248;2022-12-18T02:49:34;19.90;32.20
30148;DHT22;16960;49.404;8.248;2022-12-18T02:52:08;19.90;32.20
30148;DHT22;16960;49.404;8.248;2022-12-18T02:54:49;19.90;32.20
30148;DHT22;16960;49.404;8.248;2022-12-18T02:57:24;19.90;32.20
30148;DHT22;16960;49.404;8.248;2022-12-18T02:59:58;19.90;32.20
30148;DHT22;16960;49.404;8.248;2022-12-18T03:02:29;19.90;32.30
30148;DHT22;16960;49.404;8.248;2022-12-18T03:05:01;19.90;32.30
30148;DHT22;16960;49.404;8.248;2022-12-18T03:07:36;19.90;32.30
30148;DHT22;16960;49.404;8.248;2022-12-18T03:10:05;19.90;32.30
30148;DHT22;16960;49.404;8.248;2022-12-18T03:12:36;19.90;32.30
30148;DHT22;16960;49.404;8.248;2022-12-18T03:15:08;19.90;32.30
30148;DHT22;16960;49.404;8.248;2022-12-18T03:17:37;19.90;32.20
30148;DHT22;16960;49.404;8.248;2022-12-18T03:20:10;19.90;32.20
30148;DHT22;16960;49.404;8.248;2022-12-18T03:22:39;19.90;32.20
30148;DHT22;16960;49.404;8.248;2022-12-18T03:25:10;19.80;32.10
30148;DHT22;16960;49.404;8.248;2022-12-18T03:27:42;19.90;32.80
30148;DHT22;16960;49.404;8.248;2022-12-18T03:30:12;19.80;32.10
30148;DHT22;16960;49.404;8.248;2022-12-18T03:32:42;19.90;32.20
30148;DHT22;16960;49.404;8.248;2022-12-18T03:35:13;19.90;32.20
30148;DHT22;16960;49.404;8.248;2022-12-18T03:37:43;19.80;32.10
30148;DHT22;16960;49.404;8.248;2022-12-18T03:40:11;19.80;32.10
30148;DHT22;16960;49.404;8.248;2022-12-18T03:42:46;19.80;32.10
30148;DHT22;16960;49.404;8.248;2022-12-18T03:45:20;19.80;32.70
30148;DHT22;16960;49.404;8.248;2022-12-18T03:47:57;19.80;32.20
30148;DHT22;16960;49.404;8.248;2022-12-18T03:50:31;19.90;32.30
30148;DHT22;16960;49.404;8.248;2022-12-18T03:53:06;19.90;32.30
30148;DHT22;16960;49.404;8.248;2022-12-18T03:55:35;19.90;32.30
30148;DHT22;16960;49.404;8.248;2022-12-18T03:58:05;19.80;32.20
30148;DHT22;16960;49.404;8.248;2022-12-18T04:00:34;19.80;32.20
30148;DHT22;16960;49.404;8.248;2022-12-18T04:03:02;19.80;32.20
30148;DHT22;16960;49.404;8.248;2022-12-18T04:05:30;19.80;32.20
30148;DHT22;16960;49.404;8.248;2022-12-18T04:08:00;19.90;32.30
30148;DHT22;16960;49.404;8.248;2022-12-18T04:10:27;19.80;32.30
30148;DHT22;16960;49.404;8.248;2022-12-18T04:12:56;19.80;32.20
30148;DHT22;16960;49.404;8.248;2022-12-18T04:15:24;19.80;32.20
30148;DHT22;16960;49.404;8.248;2022-12-18T04:17:51;19.90;32.30
30148;DHT22;16960;49.404;8.248;2022-12-18T04:20:18;19.90;32.30
30148;DHT22;16960;49.404;8.248;2022-12-18T04:22:45;19.80;32.20
30148;DHT22;16960;49.404;8.248;2022-12-18T04:25:12;19.90;32.30
30148;DHT22;16960;49.404;8.248;2022-12-18T04:27:39;19.80;32.20
30148;DHT22;16960;49.404;8.248;2022-12-18T04:30:07;19.90;32.20
30148;DHT22;16960;49.404;8.248;2022-12-18T04:32:35;19.90;32.30
30148;DHT22;16960;49.404;8.248;2022-12-18T04:35:03;19.80;32.20
30148;DHT22;16960;49.404;8.248;2022-12-18T04:37:32;19.80;32.10
30148;DHT22;16960;49.404;8.248;2022-12-18T04:39:59;19.90;32.20
30148;DHT22;16960;49.404;8.248;2022-12-18T04:42:26;19.80;32.00
30148;DHT22;16960;49.404;8.248;2022-12-18T04:44:52;19.80;32.00
30148;DHT22;16960;49.404;8.248;2022-12-18T04:47:19;19.90;32.10
30148;DHT22;16960;49.404;8.248;2022-12-18T04:49:47;19.80;32.00
30148;DHT22;16960;49.404;8.248;2022-12-18T04:52:14;19.80;32.00
30148;DHT22;16960;49.404;8.248;2022-12-18T04:54:41;19.80;32.00
30148;DHT22;16960;49.404;8.248;2022-12-18T04:57:08;19.90;32.00
30148;DHT22;16960;49.404;8.248;2022-12-18T04:59:35;19.80;31.90
30148;DHT22;16960;49.404;8.248;2022-12-18T05:02:02;19.90;32.00
30148;DHT22;16960;49.404;8.248;2022-12-18T05:04:29;19.80;32.00
30148;DHT22;16960;49.404;8.248;2022-12-18T05:06:57;19.90;32.00
30148;DHT22;16960;49.404;8.248;2022-12-18T05:09:24;19.80;31.90
30148;DHT22;16960;49.404;8.248;2022-12-18T05:11:51;19.90;32.00
30148;DHT22;16960;49.404;8.248;2022-12-18T05:14:18;19.80;31.90
30148;DHT22;16960;49.404;8.248;2022-12-18T05:16:45;19.80;32.00
30148;DHT22;16960;49.404;8.248;2022-12-18T05:19:12;19.80;31.90
30148;DHT22;16960;49.404;8.248;2022-12-18T05:21:39;19.90;31.90
30148;DHT22;16960;49.404;8.248;2022-12-18T05:24:07;19.90;31.90
30148;DHT22;16960;49.404;8.248;2022-12-18T05:26:34;19.80;31.90
30148;DHT22;16960;49.404;8.248;2022-12-18T05:29:01;19.80;31.90
30148;DHT22;16960;49.404;8.248;2022-12-18T05:31:28;19.80;31.90
30148;DHT22;16960;49.404;8.248;2022-12-18T05:33:55;19.90;31.90
30148;DHT22;16960;49.404;8.248;2022-12-18T05:36:22;19.90;31.90
30148;DHT22;16960;49.404;8.248;2022-12-18T05:38:49;19.80;31.80
30148;DHT22;16960;49.404;8.248;2022-12-18T05:41:17;19.80;31.80
30148;DHT22;16960;49.404;8.248;2022-12-18T05:43:44;19.90;32.00
30148;DHT22;16960;49.404;8.248;2022-12-18T05:46:13;19.80;31.80
30148;DHT22;16960;49.404;8.248;2022-12-18T05:48:40;19.90;31.90
30148;DHT22;16960;49.404;8.248;2022-12-18T05:51:09;19.90;31.90
30148;DHT22;16960;49.404;8.248;2022-12-18T05:53:37;19.90;31.90
30148;DHT22;16960;49.404;8.248;2022-12-18T05:56:05;20.00;31.90
30148;DHT22;16960;49.404;8.248;2022-12-18T05:58:34;20.00;31.90
30148;DHT22;16960;49.404;8.248;2022-12-18T06:01:07;20.00;31.90
30148;DHT22;16960;49.404;8.248;2022-12-18T06:03:34;20.10;31.90
30148;DHT22;16960;49.404;8.248;2022-12-18T06:06:01;20.20;31.90
30148;DHT22;16960;49.404;8.248;2022-12-18T06:08:28;20.20;31.80
30148;DHT22;16960;49.404;8.248;2022-12-18T06:10:55;20.20;31.80
30148;DHT22;16960;49.404;8.248;2022-12-18T06:13:22;20.20;31.90
30148;DHT22;16960;49.404;8.248;2022-12-18T06:15:50;20.30;31.90
30148;DHT22;16960;49.404;8.248;2022-12-18T06:18:17;20.30;31.90
30148;DHT22;16960;49.404;8.248;2022-12-18T06:20:51;20.30;31.90
30148;DHT22;16960;49.404;8.248;2022-12-18T06:23:20;20.30;31.80
30148;DHT22;16960;49.404;8.248;2022-12-18T06:25:47;20.30;31.90
30148;DHT22;16960;49.404;8.248;2022-12-18T06:28:14;20.30;31.90
30148;DHT22;16960;49.404;8.248;2022-12-18T06:30:43;20.30;31.80
30148;DHT22;16960;49.404;8.248;2022-12-18T06:33:11;20.30;31.90
30148;DHT22;16960;49.404;8.248;2022-12-18T06:35:38;20.30;32.00
30148;DHT22;16960;49.404;8.248;2022-12-18T06:38:05;20.30;32.00
30148;DHT22;16960;49.404;8.248;2022-12-18T06:40:32;20.30;32.10
30148;DHT22;16960;49.404;8.248;2022-12-18T06:42:59;20.30;32.10
30148;DHT22;16960;49.404;8.248;2022-12-18T06:45:26;20.30;32.10
30148;DHT22;16960;49.404;8.248;2022-12-18T06:47:53;20.30;32.10
30148;DHT22;16960;49.404;8.248;2022-12-18T06:50:22;20.40;32.10
30148;DHT22;16960;49.404;8.248;2022-12-18T06:52:48;20.30;32.00
30148;DHT22;16960;49.404;8.248;2022-12-18T06:55:15;20.40;32.00
30148;DHT22;16960;49.404;8.248;2022-12-18T06:57:42;20.30;32.00
30148;DHT22;16960;49.404;8.248;2022-12-18T07:00:10;20.30;32.00
30148;DHT22;16960;49.404;8.248;2022-12-18T07:02:37;20.30;32.00
30148;DHT22;16960;49.404;8.248;2022-12-18T07:05:05;20.30;32.00
30148;DHT22;16960;49.404;8.248;2022-12-18T07:07:35;20.30;32.00
30148;DHT22;16960;49.404;8.248;2022-12-18T07:10:02;20.30;32.10
30148;DHT22;16960;49.404;8.248;2022-12-18T07:12:29;20.30;32.30
30148;DHT22;16960;49.404;8.248;2022-12-18T07:14:56;20.30;32.40
30148;DHT22;16960;49.404;8.248;2022-12-18T07:17:23;20.30;32.40
30148;DHT22;16960;49.404;8.248;2022-12-18T07:19:50;20.40;32.30
30148;DHT22;16960;49.404;8.248;2022-12-18T07:22:16;20.40;32.20
30148;DHT22;16960;49.404;8.248;2022-12-18T07:24:45;20.40;32.20
30148;DHT22;16960;49.404;8.248;2022-12-18T07:27:12;20.40;32.10
30148;DHT22;16960;49.404;8.248;2022-12-18T07:29:39;20.40;32.10
30148;DHT22;16960;49.404;8.248;2022-12-18T07:32:06;20.40;32.10
30148;DHT22;16960;49.404;8.248;2022-12-18T07:34:34;20.30;32.00
30148;DHT22;16960;49.404;8.248;2022-12-18T07:37:00;20.30;32.00
30148;DHT22;16960;49.404;8.248;2022-12-18T07:39:27;20.30;32.00
30148;DHT22;16960;49.404;8.248;2022-12-18T07:41:56;20.30;32.00
30148;DHT22;16960;49.404;8.248;2022-12-18T07:44:40;20.30;32.00
30148;DHT22;16960;49.404;8.248;2022-12-18T07:47:07;20.30;31.90
30148;DHT22;16960;49.404;8.248;2022-12-18T07:49:34;20.20;31.90
30148;DHT22;16960;49.404;8.248;2022-12-18T07:52:01;20.30;32.00
30148;DHT22;16960;49.404;8.248;2022-12-18T07:54:28;20.30;32.10
30148;DHT22;16960;49.404;8.248;2022-12-18T07:56:56;20.30;32.00
30148;DHT22;16960;49.404;8.248;2022-12-18T07:59:23;20.30;32.00
30148;DHT22;16960;49.404;8.248;2022-12-18T08:01:50;20.30;32.10
30148;DHT22;16960;49.404;8.248;2022-12-18T08:04:17;20.30;32.10
30148;DHT22;16960;49.404;8.248;2022-12-18T08:06:44;20.40;32.20
30148;DHT22;16960;49.404;8.248;2022-12-18T08:09:11;20.40;32.20
30148;DHT22;16960;49.404;8.248;2022-12-18T08:11:38;20.40;32.10
30148;DHT22;16960;49.404;8.248;2022-12-18T08:14:06;20.40;32.10
30148;DHT22;16960;49.404;8.248;2022-12-18T08:16:33;20.40;32.00
30148;DHT22;16960;49.404;8.248;2022-12-18T08:19:00;20.40;31.90
30148;DHT22;16960;49.404;8.248;2022-12-18T08:21:28;20.40;31.30
30148;DHT22;16960;49.404;8.248;2022-12-18T08:23:57;20.40;31.20
30148;DHT22;16960;49.404;8.248;2022-12-18T08:26:26;20.40;31.30
30148;DHT22;16960;49.404;8.248;2022-12-18T08:28:54;20.40;31.60
30148;DHT22;16960;49.404;8.248;2022-12-18T08:31:23;20.40;31.60
30148;DHT22;16960;49.404;8.248;2022-12-18T08:33:51;20.40;31.70
30148;DHT22;16960;49.404;8.248;2022-12-18T08:36:19;20.40;31.70
30148;DHT22;16960;49.404;8.248;2022-12-18T08:38:47;20.40;31.60
30148;DHT22;16960;49.404;8.248;2022-12-18T08:41:15;20.40;31.70
30148;DHT22;16960;49.404;8.248;2022-12-18T08:43:42;20.50;31.80
30148;DHT22;16960;49.404;8.248;2022-12-18T08:46:34;20.50;31.70
30148;DHT22;16960;49.404;8.248;2022-12-18T08:49:01;20.50;31.70
30148;DHT22;16960;49.404;8.248;2022-12-18T08:51:28;20.50;31.60
30148;DHT22;16960;49.404;8.248;2022-12-18T08:53:55;20.50;31.60
30148;DHT22;16960;49.404;8.248;2022-12-18T08:56:22;20.50;31.60
30148;DHT22;16960;49.404;8.248;2022-12-18T08:58:51;20.50;31.50
30148;DHT22;16960;49.404;8.248;2022-12-18T09:01:18;20.50;31.50
30148;DHT22;16960;49.404;8.248;2022-12-18T09:03:47;20.50;31.50
30148;DHT22;16960;49.404;8.248;2022-12-18T09:06:14;20.50;31.50
30148;DHT22;16960;49.404;8.248;2022-12-18T09:08:42;20.50;31.50
30148;DHT22;16960;49.404;8.248;2022-12-18T09:11:12;20.50;31.30
30148;DHT22;16960;49.404;8.248;2022-12-18T09:13:39;20.50;31.30
30148;DHT22;16960;49.404;8.248;2022-12-18T09:16:06;20.50;31.30
30148;DHT22;16960;49.404;8.248;2022-12-18T09:18:33;20.50;31.60
30148;DHT22;16960;49.404;8.248;2022-12-18T09:21:07;20.50;31.30
30148;DHT22;16960;49.404;8.248;2022-12-18T09:23:34;20.50;31.30
30148;DHT22;16960;49.404;8.248;2022-12-18T09:26:01;20.60;31.30
30148;DHT22;16960;49.404;8.248;2022-12-18T09:28:28;20.60;31.30
30148;DHT22;16960;49.404;8.248;2022-12-18T09:30:55;20.60;31.20
30148;DHT22;16960;49.404;8.248;2022-12-18T09:33:22;20.60;31.20
30148;DHT22;16960;49.404;8.248;2022-12-18T09:35:49;20.60;31.20
30148;DHT22;16960;49.404;8.248;2022-12-18T09:38:19;20.70;31.30
30148;DHT22;16960;49.404;8.248;2022-12-18T09:40:48;20.70;31.30
30148;DHT22;16960;49.404;8.248;2022-12-18T09:43:18;20.60;31.80
30148;DHT22;16960;49.404;8.248;2022-12-18T09:45:51;20.70;31.20
30148;DHT22;16960;49.404;8.248;2022-12-18T09:48:23;20.70;31.20
30148;DHT22;16960;49.404;8.248;2022-12-18T09:50:52;20.70;31.30
30148;DHT22;16960;49.404;8.248;2022-12-18T09:53:26;20.70;31.50
30148;DHT22;16960;49.404;8.248;2022-12-18T09:55:54;20.70;31.40
30148;DHT22;16960;49.404;8.248;2022-12-18T09:58:28;20.70;31.50
30148;DHT22;16960;49.404;8.248;2022-12-18T10:00:56;20.70;31.40
30148;DHT22;16960;49.404;8.248;2022-12-18T10:03:23;20.70;31.20
30148;DHT22;16960;49.404;8.248;2022-12-18T10:05:58;20.70;31.20
30148;DHT22;16960;49.404;8.248;2022-12-18T10:08:37;20.70;31.60
30148;DHT22;16960;49.404;8.248;2022-12-18T10:11:21;20.70;31.50
30148;DHT22;16960;49.404;8.248;2022-12-18T10:13:54;20.70;31.30
30148;DHT22;16960;49.404;8.248;2022-12-18T10:16:27;20.80;31.30
30148;DHT22;16960;49.404;8.248;2022-12-18T10:19:01;20.80;31.20
30148;DHT22;16960;49.404;8.248;2022-12-18T10:21:36;20.80;31.20
30148;DHT22;16960;49.404;8.248;2022-12-18T10:24:14;20.80;31.20
30148;DHT22;16960;49.404;8.248;2022-12-18T10:26:44;20.80;31.10
30148;DHT22;16960;49.404;8.248;2022-12-18T10:29:13;20.80;31.20
30148;DHT22;16960;49.404;8.248;2022-12-18T10:31:40;20.80;31.10
30148;DHT22;16960;49.404;8.248;2022-12-18T10:34:09;20.80;31.10
30148;DHT22;16960;49.404;8.248;2022-12-18T10:36:37;20.80;31.10
30148;DHT22;16960;49.404;8.248;2022-12-18T10:39:21;20.90;31.30
30148;DHT22;16960;49.404;8.248;2022-12-18T10:41:48;20.90;31.30
30148;DHT22;16960;49.404;8.248;2022-12-18T10:44:18;20.90;31.10
30148;DHT22;16960;49.404;8.248;2022-12-18T10:46:46;20.90;31.00
30148;DHT22;16960;49.404;8.248;2022-12-18T10:49:22;20.90;31.10
30148;DHT22;16960;49.404;8.248;2022-12-18T10:51:50;20.90;31.00
30148;DHT22;16960;49.404;8.248;2022-12-18T10:54:21;20.90;31.00
30148;DHT22;16960;49.404;8.248;2022-12-18T10:56:49;20.90;30.90
30148;DHT22;16960;49.404;8.248;2022-12-18T10:59:17;20.90;31.00
30148;DHT22;16960;49.404;8.248;2022-12-18T11:01:50;20.90;31.00
30148;DHT22;16960;49.404;8.248;2022-12-18T11:04:19;20.90;30.80
30148;DHT22;16960;49.404;8.248;2022-12-18T11:06:55;20.90;30.70
30148;DHT22;16960;49.404;8.248;2022-12-18T11:09:26;20.90;30.80
30148;DHT22;16960;49.404;8.248;2022-12-18T11:11:55;20.90;30.70
30148;DHT22;16960;49.404;8.248;2022-12-18T11:14:24;20.90;30.70
30148;DHT22;16960;49.404;8.248;2022-12-18T11:16:52;20.90;31.30
30148;DHT22;16960;49.404;8.248;2022-12-18T11:19:26;20.90;30.80
30148;DHT22;16960;49.404;8.248;2022-12-18T11:21:55;20.90;30.70
30148;DHT22;16960;49.404;8.248;2022-12-18T11:24:27;20.90;30.80
30148;DHT22;16960;49.404;8.248;2022-12-18T11:26:56;20.90;30.80
30148;DHT22;16960;49.404;8.248;2022-12-18T11:29:33;20.90;30.90
30148;DHT22;16960;49.404;8.248;2022-12-18T11:32:31;20.90;30.80
30148;DHT22;16960;49.404;8.248;2022-12-18T11:35:10;20.90;30.90
30148;DHT22;16960;49.404;8.248;2022-12-18T11:37:39;20.90;30.90
30148;DHT22;16960;49.404;8.248;2022-12-18T11:40:14;20.90;30.80
30148;DHT22;16960;49.404;8.248;2022-12-18T11:42:47;20.90;30.80
30148;DHT22;16960;49.404;8.248;2022-12-18T11:45:24;20.90;30.80
30148;DHT22;16960;49.404;8.248;2022-12-18T11:47:56;20.90;30.80
30148;DHT22;16960;49.404;8.248;2022-12-18T11:50:25;20.90;30.80
30148;DHT22;16960;49.404;8.248;2022-12-18T11:52:52;20.90;30.80
30148;DHT22;16960;49.404;8.248;2022-12-18T11:55:31;20.90;30.80
30148;DHT22;16960;49.404;8.248;2022-12-18T11:58:03;20.90;30.80
30148;DHT22;16960;49.404;8.248;2022-12-18T12:00:31;20.90;30.60
30148;DHT22;16960;49.404;8.248;2022-12-18T12:03:23;20.90;30.60
30148;DHT22;16960;49.404;8.248;2022-12-18T12:06:02;20.80;30.50
30148;DHT22;16960;49.404;8.248;2022-12-18T12:08:41;20.90;30.60
30148;DHT22;16960;49.404;8.248;2022-12-18T12:11:17;20.90;30.60
30148;DHT22;16960;49.404;8.248;2022-12-18T12:13:50;20.90;30.60
30148;DHT22;16960;49.404;8.248;2022-12-18T12:16:27;20.80;30.50
30148;DHT22;16960;49.404;8.248;2022-12-18T12:19:15;20.90;30.70
30148;DHT22;16960;49.404;8.248;2022-12-18T12:21:48;20.90;30.70
30148;DHT22;16960;49.404;8.248;2022-12-18T12:24:31;20.90;30.90
30148;DHT22;16960;49.404;8.248;2022-12-18T12:27:08;20.90;30.90
30148;DHT22;16960;49.404;8.248;2022-12-18T12:29:49;20.90;30.80
30148;DHT22;16960;49.404;8.248;2022-12-18T12:32:28;20.90;30.80
30148;DHT22;16960;49.404;8.248;2022-12-18T12:35:10;21.00;30.80
30148;DHT22;16960;49.404;8.248;2022-12-18T12:37:54;21.00;30.70
30148;DHT22;16960;49.404;8.248;2022-12-18T12:40:26;21.00;30.30
30148;DHT22;16960;49.404;8.248;2022-12-18T12:42:57;21.00;30.30
30148;DHT22;16960;49.404;8.248;2022-12-18T12:45:46;21.00;30.40
30148;DHT22;16960;49.404;8.248;2022-12-18T12:48:33;21.00;31.00
30148;DHT22;16960;49.404;8.248;2022-12-18T12:51:03;21.00;30.40
30148;DHT22;16960;49.404;8.248;2022-12-18T12:53:34;21.00;30.40
30148;DHT22;16960;49.404;8.248;2022-12-18T12:56:04;21.00;30.40
30148;DHT22;16960;49.404;8.248;2022-12-18T12:58:38;21.00;30.60
30148;DHT22;16960;49.404;8.248;2022-12-18T13:01:13;21.00;30.60
30148;DHT22;16960;49.404;8.248;2022-12-18T13:03:54;21.00;30.50
30148;DHT22;16960;49.404;8.248;2022-12-18T13:06:33;21.00;30.50
30148;DHT22;16960;49.404;8.248;2022-12-18T13:09:03;21.00;30.50
30148;DHT22;16960;49.404;8.248;2022-12-18T13:11:39;21.00;30.50
30148;DHT22;16960;49.404;8.248;2022-12-18T13:14:28;21.00;30.50
30148;DHT22;16960;49.404;8.248;2022-12-18T13:17:14;21.00;30.50
30148;DHT22;16960;49.404;8.248;2022-12-18T13:19:41;21.00;30.50
30148;DHT22;16960;49.404;8.248;2022-12-18T13:22:21;21.00;30.50
30148;DHT22;16960;49.404;8.248;2022-12-18T13:24:48;21.00;30.60
30148;DHT22;16960;49.404;8.248;2022-12-18T13:27:45;21.00;30.60
30148;DHT22;16960;49.404;8.248;2022-12-18T13:30:42;21.00;30.60
30148;DHT22;16960;49.404;8.248;2022-12-18T13:33:38;21.10;30.70
30148;DHT22;16960;49.404;8.248;2022-12-18T13:36:13;21.10;30.60
30148;DHT22;16960;49.404;8.248;2022-12-18T13:38:41;21.10;30.60
30148;DHT22;16960;49.404;8.248;2022-12-18T13:41:23;21.10;30.50
30148;DHT22;16960;49.404;8.248;2022-12-18T13:43:52;21.10;30.50
30148;DHT22;16960;49.404;8.248;2022-12-18T13:46:26;21.10;30.50
30148;DHT22;16960;49.404;8.248;2022-12-18T13:49:00;21.10;30.50
30148;DHT22;16960;49.404;8.248;2022-12-18T13:51:29;21.20;30.50
30148;DHT22;16960;49.404;8.248;2022-12-18T13:53:58;21.20;30.40
30148;DHT22;16960;49.404;8.248;2022-12-18T13:56:28;21.20;30.40
30148;DHT22;16960;49.404;8.248;2022-12-18T13:59:15;21.10;30.40
30148;DHT22;16960;49.404;8.248;2022-12-18T14:01:50;21.20;30.10
30148;DHT22;16960;49.404;8.248;2022-12-18T14:04:23;21.10;30.20
30148;DHT22;16960;49.404;8.248;2022-12-18T14:06:53;21.10;30.20
30148;DHT22;16960;49.404;8.248;2022-12-18T14:09:27;21.10;30.20
30148;DHT22;16960;49.404;8.248;2022-12-18T14:11:55;21.00;30.10
30148;DHT22;16960;49.404;8.248;2022-12-18T14:14:45;21.00;30.10
30148;DHT22;16960;49.404;8.248;2022-12-18T14:17:15;21.00;30.20
30148;DHT22;16960;49.404;8.248;2022-12-18T14:19:43;21.00;30.20
30148;DHT22;16960;49.404;8.248;2022-12-18T14:22:17;21.00;30.30
30148;DHT22;16960;49.404;8.248;2022-12-18T14:24:45;21.00;30.20
30148;DHT22;16960;49.404;8.248;2022-12-18T14:27:21;20.90;30.30
30148;DHT22;16960;49.404;8.248;2022-12-18T14:29:49;21.00;30.30
30148;DHT22;16960;49.404;8.248;2022-12-18T14:32:18;20.90;30.30
30148;DHT22;16960;49.404;8.248;2022-12-18T14:34:48;21.00;30.40
30148;DHT22;16960;49.404;8.248;2022-12-18T14:37:17;21.00;30.40
30148;DHT22;16960;49.404;8.248;2022-12-18T14:39:55;20.90;31.00
30148;DHT22;16960;49.404;8.248;2022-12-18T14:42:23;21.00;30.30
30148;DHT22;16960;49.404;8.248;2022-12-18T14:47:55;21.00;30.40
30148;DHT22;16960;49.404;8.248;2022-12-18T14:50:22;21.00;30.50
30148;DHT22;16960;49.404;8.248;2022-12-18T14:52:49;21.00;30.50
30148;DHT22;16960;49.404;8.248;2022-12-18T14:55:17;21.00;30.60
30148;DHT22;16960;49.404;8.248;2022-12-18T14:57:45;21.10;30.60
30148;DHT22;16960;49.404;8.248;2022-12-18T15:00:17;21.10;30.50
30148;DHT22;16960;49.404;8.248;2022-12-18T15:02:46;21.10;30.50
30148;DHT22;16960;49.404;8.248;2022-12-18T15:05:20;21.10;30.50
30148;DHT22;16960;49.404;8.248;2022-12-18T15:07:49;21.10;30.50
30148;DHT22;16960;49.404;8.248;2022-12-18T15:10:18;21.10;30.50
30148;DHT22;16960;49.404;8.248;2022-12-18T15:12:47;21.10;30.40
30148;DHT22;16960;49.404;8.248;2022-12-18T15:15:45;21.10;30.40
30148;DHT22;16960;49.404;8.248;2022-12-18T15:18:14;21.10;30.50
30148;DHT22;16960;49.404;8.248;2022-12-18T15:20:46;21.20;30.50
30148;DHT22;16960;49.404;8.248;2022-12-18T15:23:19;21.10;30.50
30148;DHT22;16960;49.404;8.248;2022-12-18T15:25:48;21.10;30.50
30148;DHT22;16960;49.404;8.248;2022-12-18T15:28:19;21.10;30.50
30148;DHT22;16960;49.404;8.248;2022-12-18T15:31:06;21.10;30.50
30148;DHT22;16960;49.404;8.248;2022-12-18T15:33:35;21.20;30.50
30148;DHT22;16960;49.404;8.248;2022-12-18T15:36:08;21.10;30.50
30148;DHT22;16960;49.404;8.248;2022-12-18T15:38:35;21.10;30.50
30148;DHT22;16960;49.404;8.248;2022-12-18T15:41:03;21.10;30.60
30148;DHT22;16960;49.404;8.248;2022-12-18T15:43:30;21.10;31.20
30148;DHT22;16960;49.404;8.248;2022-12-18T15:46:06;21.10;30.60
30148;DHT22;16960;49.404;8.248;2022-12-18T15:48:35;21.10;30.70
30148;DHT22;16960;49.404;8.248;2022-12-18T15:51:13;21.10;30.70
30148;DHT22;16960;49.404;8.248;2022-12-18T15:53:41;21.00;30.60
30148;DHT22;16960;49.404;8.248;2022-12-18T15:56:10;21.10;30.70